CheckWX is a tool to help pilots better visualize weather data.  It is not intended as a substitute for an official pre-flight weather briefing.

19:29:06 UTC

KAIO METAR
Atlantic Municipal Airport
Atlantic, Iowa, USA
Current

34 mins ago

KAIO 121855Z AUTO 18012G20KT 10SM -UP CLR M08/M13 A3041 RMK AO2
Observed
Nov-12 @ 18:55 UTC
Wind
  • 180° at 12 KTS
  • Gusting to 20 KTS
Visibility
10 SM
Flight Rules
VFR
Conditions
Unknown precipitation
Cloud Levels
  • Clear skies
Temperature
-8°C / 18°F
Dewpoint
-13°C / 9°F
Humidity
68%
Altimeter
30.41" Hg
Pressure
1029.82 hPa
Previous

54 mins ago

KAIO 121835Z AUTO 18013G19KT 10SM CLR M08/M13 A3042 RMK AO2
Observed
Nov-12 @ 18:35 UTC
Wind
  • 180° at 13 KTS
  • Gusting to 19 KTS
Visibility
10 SM
Flight Rules
VFR
Cloud Levels
  • Clear skies
Temperature
-8°C / 18°F
Dewpoint
-13°C / 9°F
Humidity
68%
Altimeter
30.42" Hg
Pressure
1030.12 hPa
Previous

1 hour ago

KAIO 121815Z AUTO 18013KT 10SM CLR M09/M14 A3045 RMK AO2
Observed
Nov-12 @ 18:15 UTC
Wind
  • 180° at 13 KTS
Visibility
10 SM
Flight Rules
VFR
Cloud Levels
  • Clear skies
Temperature
-9°C / 16°F
Dewpoint
-14°C / 7°F
Humidity
67%
Altimeter
30.45" Hg
Pressure
1031.12 hPa